Time;durP1;ratioP1;P1;durP2;ratioP2;P2;SDS_P1;SDS_P2;PMS_P1;PMS_P2;Temp;Humidity;BMP_temperature;BMP_pressure;BME280_temperature;BME280_humidity;BME280_pressure;Samples;Min_cycle;Max_cycle;Signal;HPM_P1;HPM_P2
2023/10/02 00:01:06;;;;;;;3.47;3.13;;;;;;;16.23;89.96;96223.50;4373357;32;20199;-62
2023/10/02 00:03:39;;;;;;;4.90;4.47;;;;;;;16.13;88.92;96221.06;4344640;32;20215;-62
2023/10/02 00:06:09;;;;;;;2.37;2.27;;;;;;;15.98;88.98;96219.56;4361860;32;20283;-61
2023/10/02 00:09:03;;;;;;;2.23;2.13;;;;;;;16.11;88.99;96212.56;4342490;32;20208;-62
2023/10/02 00:11:35;;;;;;;3.07;2.87;;;;;;;16.05;88.28;96216.44;4361724;32;20275;-62
2023/10/02 00:14:18;;;;;;;2.40;2.27;;;;;;;16.06;88.38;96218.03;4336570;32;20205;-62
2023/10/02 00:16:59;;;;;;;2.60;2.37;;;;;;;16.03;89.12;96218.63;4359623;32;20238;-62
2023/10/02 00:19:39;;;;;;;3.63;3.17;;;;;;;15.95;89.12;96217.50;4361755;32;20195;-62
2023/10/02 00:22:09;;;;;;;3.93;2.93;;;;;;;15.92;89.85;96217.31;4355642;32;20173;-62
2023/10/02 00:24:40;;;;;;;4.23;3.00;;;;;;;15.81;88.91;96212.19;4349934;32;20181;-62
2023/10/02 00:27:10;;;;;;;2.37;2.27;;;;;;;15.73;87.98;96210.28;4361832;32;20178;-62
2023/10/02 00:29:51;;;;;;;11.90;2.67;;;;;;;15.71;88.95;96207.09;4348685;32;20252;-62
2023/10/02 00:32:19;;;;;;;11.77;3.33;;;;;;;15.54;90.42;96206.94;4345028;32;20181;-62
2023/10/02 00:34:50;;;;;;;1.93;1.83;;;;;;;15.72;91.23;96211.38;4348178;32;20184;-62
2023/10/02 00:37:16;;;;;;;4.30;2.60;;;;;;;15.93;91.17;96218.91;4330593;32;20185;-62
2023/10/02 00:39:52;;;;;;;4.97;2.80;;;;;;;15.75;88.67;96210.75;4346857;32;20195;-62
2023/10/02 00:44:52;;;;;;;4.03;3.70;;;;;;;15.94;90.18;96210.56;4354556;32;20274;-62
2023/10/02 00:47:38;;;;;;;4.43;3.97;;;;;;;15.68;89.50;96210.38;4353919;32;20185;-62
2023/10/02 00:50:21;;;;;;;4.60;3.30;;;;;;;15.89;90.33;96210.69;4345733;32;20235;-62
2023/10/02 00:53:03;;;;;;;1.73;1.63;;;;;;;15.87;89.72;96199.50;4344440;32;20224;-62
2023/10/02 00:55:35;;;;;;;5.60;3.87;;;;;;;15.94;89.72;96209.78;4334638;32;20209;-62
2023/10/02 00:58:08;;;;;;;4.03;3.67;;;;;;;15.78;88.92;96201.34;4290161;32;20228;-62
2023/10/02 01:00:37;;;;;;;3.33;2.93;;;;;;;15.88;90.24;96200.28;4366505;32;20208;-62
2023/10/02 01:03:14;;;;;;;2.73;2.53;;;;;;;15.78;89.58;96202.12;4367182;32;20231;-62
2023/10/02 01:11:02;;;;;;;8.20;3.77;;;;;;;15.98;88.40;96200.84;4355357;32;20472;-61
2023/10/02 01:13:37;;;;;;;6.53;3.63;;;;;;;16.07;88.85;96200.88;4368691;32;20189;-62
2023/10/02 01:16:09;;;;;;;3.73;2.77;;;;;;;15.91;88.30;96205.03;4348881;32;20290;-62
2023/10/02 01:18:38;;;;;;;6.00;4.43;;;;;;;15.81;87.13;96206.84;4321346;32;20197;-61
2023/10/02 01:21:09;;;;;;;3.97;2.73;;;;;;;15.77;89.07;96203.22;4336058;32;20228;-62
2023/10/02 01:24:08;;;;;;;3.30;2.30;;;;;;;15.71;90.68;96196.41;4347272;32;20199;-62
2023/10/02 01:26:41;;;;;;;9.57;3.37;;;;;;;15.82;89.37;96196.94;4346276;32;20208;-61
2023/10/02 01:29:10;;;;;;;2.23;2.13;;;;;;;15.74;89.11;96197.69;4327780;32;20201;-62
2023/10/02 01:31:47;;;;;;;5.63;3.67;;;;;;;15.81;89.57;96200.69;4327595;32;20189;-62
2023/10/02 01:37:00;;;;;;;2.37;2.07;;;;;;;15.80;89.84;96197.25;4348972;32;20235;-62
2023/10/02 01:39:25;;;;;;;3.77;3.43;;;;;;;15.66;89.23;96193.06;4302664;32;20274;-62
2023/10/02 01:41:53;;;;;;;3.90;3.23;;;;;;;15.75;88.72;96186.69;4351292;32;20199;-61
2023/10/02 01:44:24;;;;;;;2.87;2.67;;;;;;;15.72;89.02;96192.63;4375104;32;20185;-62
2023/10/02 01:46:52;;;;;;;2.87;2.67;;;;;;;15.53;88.97;96189.31;4332079;32;20189;-62
2023/10/02 01:49:26;;;;;;;2.83;2.70;;;;;;;15.64;89.17;96190.69;4366087;32;20173;-61
2023/10/02 01:51:58;;;;;;;4.60;3.03;;;;;;;15.65;88.36;96194.94;4377039;32;20184;-62
2023/10/02 01:54:32;;;;;;;2.53;2.40;;;;;;;15.64;89.26;96193.34;4361586;32;20198;-62
2023/10/02 01:57:04;;;;;;;3.37;3.07;;;;;;;15.80;89.04;96194.56;4358437;32;20226;-62
2023/10/02 01:59:29;;;;;;;3.73;3.40;;;;;;;15.71;88.83;96188.38;4333744;32;20256;-62
2023/10/02 02:02:12;;;;;;;3.80;2.77;;;;;;;15.67;88.65;96189.28;4339105;32;20268;-62
2023/10/02 02:04:38;;;;;;;4.33;3.93;;;;;;;15.71;88.89;96193.72;4331888;32;20296;-62
2023/10/02 02:07:07;;;;;;;8.40;3.70;;;;;;;15.78;89.02;96187.97;4334235;32;20209;-62
2023/10/02 02:09:42;;;;;;;3.50;3.27;;;;;;;15.60;87.38;96194.25;4329342;32;20170;-62
2023/10/02 02:12:10;;;;;;;2.60;2.10;;;;;;;15.71;88.89;96187.59;4346829;32;20176;-62
2023/10/02 02:14:56;;;;;;;4.47;4.07;;;;;;;15.67;88.77;96182.06;4349597;32;20216;-62
2023/10/02 02:17:26;;;;;;;4.30;3.90;;;;;;;15.29;88.57;96183.44;4357531;32;20224;-62
2023/10/02 02:19:54;;;;;;;2.60;2.43;;;;;;;15.70;89.43;96184.13;4371764;32;20191;-61
2023/10/02 02:22:26;;;;;;;3.93;3.57;;;;;;;15.71;87.91;96180.34;4375206;32;20180;-62
2023/10/02 02:24:55;;;;;;;3.40;3.13;;;;;;;15.57;88.83;96184.19;4366441;32;20268;-61
2023/10/02 02:27:21;;;;;;;5.67;4.03;;;;;;;15.72;88.05;96179.25;4349702;32;20219;-61
2023/10/02 02:29:50;;;;;;;3.97;3.67;;;;;;;15.67;87.41;96182.06;4360001;32;20176;-61
2023/10/02 02:32:19;;;;;;;6.00;2.50;;;;;;;15.47;88.89;96185.16;4334099;32;20197;-62
2023/10/02 02:35:00;;;;;;;2.23;2.13;;;;;;;15.49;87.29;96177.63;4345903;32;20231;-62
2023/10/02 02:37:28;;;;;;;2.27;2.13;;;;;;;15.55;87.89;96184.47;4345319;32;20199;-61
2023/10/02 02:40:21;;;;;;;3.70;3.50;;;;;;;15.53;88.68;96177.81;4360343;32;20199;-62
2023/10/02 02:42:41;;;;;;;2.90;2.70;;;;;;;15.60;87.29;96170.97;4335168;32;20180;-62
2023/10/02 02:45:24;;;;;;;1.70;1.70;;;;;;;15.37;87.62;96175.50;4363385;32;20185;-61
2023/10/02 02:47:54;;;;;;;7.10;4.33;;;;;;;15.44;88.50;96170.50;4370047;32;20191;-62
2023/10/02 02:50:32;;;;;;;1.90;1.80;;;;;;;15.49;86.85;96177.63;4377642;32;20177;-61
2023/10/02 02:55:42;;;;;;;4.33;3.90;;;;;;;15.15;87.42;96174.69;4374744;32;20238;-62
2023/10/02 02:58:09;;;;;;;2.20;2.10;;;;;;;15.17;87.93;96184.00;4352525;32;20193;-61
2023/10/02 03:00:35;;;;;;;2.70;2.50;;;;;;;15.18;87.44;96182.06;4364275;32;20193;-61
2023/10/02 03:03:03;;;;;;;3.90;3.40;;;;;;;15.38;88.08;96181.66;4374513;32;20193;-61
2023/10/02 03:05:40;;;;;;;2.53;2.43;;;;;;;15.34;88.62;96181.47;4361981;32;20188;-61
2023/10/02 03:08:06;;;;;;;4.80;3.87;;;;;;;15.43;86.62;96179.62;4366550;32;20181;-61
2023/10/02 03:10:40;;;;;;;2.20;2.10;;;;;;;15.11;86.08;96177.94;4349958;32;20193;-60
2023/10/02 03:13:15;;;;;;;3.50;3.30;;;;;;;15.08;87.10;96178.56;4339738;32;20184;-61
2023/10/02 03:15:49;;;;;;;3.13;2.83;;;;;;;15.12;87.76;96182.22;4346269;32;20248;-61
2023/10/02 03:18:31;;;;;;;5.50;3.87;;;;;;;15.27;87.22;96174.94;4340916;32;20331;-61
2023/10/02 03:20:58;;;;;;;8.87;4.70;;;;;;;15.20;85.88;96170.00;4365663;32;20214;-61
2023/10/02 03:23:30;;;;;;;3.13;2.77;;;;;;;15.16;87.08;96162.91;4351617;32;20232;-61
2023/10/02 03:25:56;;;;;;;3.87;3.57;;;;;;;15.08;87.11;96173.19;4342601;32;20173;-61
2023/10/02 03:28:32;;;;;;;3.17;2.97;;;;;;;15.21;86.32;96170.78;4364514;32;20173;-61
2023/10/02 03:31:03;;;;;;;5.53;2.80;;;;;;;15.11;88.63;96175.28;4346459;32;20203;-61
2023/10/02 03:33:31;;;;;;;3.57;3.27;;;;;;;15.25;87.99;96167.22;4353238;32;20184;-61
2023/10/02 03:35:58;;;;;;;3.07;2.87;;;;;;;15.22;87.25;96175.03;4334993;32;20318;-61
2023/10/02 03:38:26;;;;;;;3.90;3.60;;;;;;;15.38;87.13;96170.97;4356611;32;20211;-61
2023/10/02 03:40:57;;;;;;;3.40;3.20;;;;;;;15.17;87.25;96177.84;4362023;32;20223;-60
2023/10/02 03:43:34;;;;;;;3.80;3.43;;;;;;;15.19;87.29;96180.97;4345639;32;20182;-61
2023/10/02 03:46:06;;;;;;;4.37;3.97;;;;;;;15.16;87.92;96178.94;4346288;32;20185;-60
2023/10/02 03:48:36;;;;;;;3.03;2.73;;;;;;;15.31;87.70;96173.25;4323498;32;20209;-61
2023/10/02 03:51:09;;;;;;;5.93;3.17;;;;;;;15.40;86.97;96171.41;4362378;32;20182;-61
2023/10/02 03:53:37;;;;;;;4.63;3.80;;;;;;;15.31;87.42;96171.38;4371928;32;20185;-61
2023/10/02 03:58:53;;;;;;;16.77;5.00;;;;;;;15.17;84.96;96164.50;4355200;32;20260;-60
2023/10/02 04:01:31;;;;;;;2.67;2.53;;;;;;;15.22;87.10;96159.00;4349168;32;20197;-61
2023/10/02 04:06:42;;;;;;;7.83;3.07;;;;;;;15.30;87.17;96163.66;4361998;32;20185;-61
2023/10/02 04:09:21;;;;;;;4.57;4.03;;;;;;;15.37;86.65;96164.03;4350370;32;20223;-63
2023/10/02 04:11:50;;;;;;;3.70;3.47;;;;;;;15.26;86.57;96158.09;4364713;32;20211;-60
2023/10/02 04:14:18;;;;;;;8.20;5.13;;;;;;;15.31;86.90;96159.87;4379472;32;20242;-61
2023/10/02 04:16:48;;;;;;;3.47;3.17;;;;;;;15.30;87.22;96153.75;4365215;32;20193;-61
2023/10/02 04:19:16;;;;;;;6.83;3.97;;;;;;;15.36;86.54;96160.56;4381713;32;20295;-61
2023/10/02 04:21:45;;;;;;;5.10;4.67;;;;;;;15.17;87.27;96162.59;4340817;32;20200;-61
2023/10/02 04:24:13;;;;;;;3.33;3.03;;;;;;;14.89;86.90;96164.53;4367793;32;20188;-62
2023/10/02 04:26:48;;;;;;;3.37;3.07;;;;;;;15.07;87.22;96166.28;4362230;32;20192;-61
2023/10/02 04:29:15;;;;;;;4.83;4.37;;;;;;;15.22;86.96;96161.69;4347694;32;20196;-61
2023/10/02 04:31:44;;;;;;;3.57;3.37;;;;;;;15.23;86.97;96161.38;4357828;32;20197;-61
2023/10/02 04:36:53;;;;;;;4.03;3.70;;;;;;;14.96;87.07;96164.12;4353986;32;20177;-61
2023/10/02 04:39:52;;;;;;;3.67;3.43;;;;;;;14.91;87.99;96162.34;4316892;32;20189;-61
2023/10/02 04:42:14;;;;;;;3.70;3.50;;;;;;;14.87;86.67;96171.25;4313257;32;20189;-61
2023/10/02 04:44:44;;;;;;;7.10;4.03;;;;;;;14.85;86.97;96174.22;4370530;32;20180;-61
2023/10/02 04:47:20;;;;;;;3.33;2.83;;;;;;;14.83;86.17;96171.06;4369114;32;20189;-61
2023/10/02 04:50:34;;;;;;;3.37;3.17;;;;;;;14.66;87.74;96176.22;4362326;32;20224;-61
2023/10/02 04:55:24;;;;;;;3.70;3.10;;;;;;;14.94;87.30;96167.09;4375158;32;20257;-61
2023/10/02 04:57:54;;;;;;;6.30;4.37;;;;;;;14.57;87.50;96175.31;4378169;32;20215;-61
2023/10/02 05:00:33;;;;;;;2.97;2.77;;;;;;;14.58;87.88;96175.03;4371263;32;20185;-61
2023/10/02 05:03:09;;;;;;;4.80;4.43;;;;;;;14.63;85.67;96172.28;4371384;32;20179;-61
2023/10/02 05:05:49;;;;;;;3.13;3.00;;;;;;;14.70;87.38;96171.88;4371100;32;20180;-61
2023/10/02 05:08:19;;;;;;;9.80;3.00;;;;;;;14.94;86.80;96169.00;4380726;32;20199;-61
2023/10/02 05:11:04;;;;;;;3.00;2.80;;;;;;;15.08;86.42;96173.19;4363257;32;20236;-61
2023/10/02 05:13:53;;;;;;;3.97;3.67;;;;;;;14.93;85.76;96170.88;4378381;32;20254;-61
2023/10/02 05:16:26;;;;;;;3.53;3.23;;;;;;;14.86;86.94;96177.69;4377832;32;20184;-61
2023/10/02 05:18:53;;;;;;;5.50;3.60;;;;;;;14.96;85.95;96170.28;4369449;32;20189;-62
2023/10/02 05:21:19;;;;;;;5.30;3.03;;;;;;;14.86;84.68;96177.69;4377747;32;20219;-62
2023/10/02 05:24:11;;;;;;;3.33;3.13;;;;;;;15.04;86.76;96171.44;4366515;32;20206;-62
2023/10/02 05:26:36;;;;;;;4.30;3.53;;;;;;;14.84;85.95;96183.34;4378471;32;20188;-63
2023/10/02 05:29:06;;;;;;;3.13;2.90;;;;;;;14.73;86.79;96171.28;4358293;32;20204;-62
2023/10/02 05:31:35;;;;;;;3.53;3.33;;;;;;;14.92;87.09;96179.97;4364587;32;20189;-63
2023/10/02 05:34:24;;;;;;;4.70;4.30;;;;;;;14.77;86.88;96186.41;4378717;32;20212;-62
2023/10/02 05:37:11;;;;;;;3.77;3.43;;;;;;;14.92;85.85;96185.31;4368506;32;20203;-62
2023/10/02 05:39:40;;;;;;;4.03;3.63;;;;;;;14.77;85.59;96188.28;4373437;32;20185;-63
2023/10/02 05:42:16;;;;;;;6.43;4.70;;;;;;;14.76;86.41;96186.69;4377724;32;20180;-62
2023/10/02 05:44:43;;;;;;;2.73;2.63;;;;;;;14.76;87.16;96198.16;4381133;32;20196;-62
2023/10/02 05:47:09;;;;;;;7.03;5.53;;;;;;;15.06;86.10;96196.75;4378483;32;20196;-62
2023/10/02 05:49:37;;;;;;;6.97;3.70;;;;;;;14.89;85.19;96193.91;4371232;32;20197;-62
2023/10/02 05:52:07;;;;;;;3.93;3.40;;;;;;;15.06;85.95;96202.09;4382049;32;20207;-62
2023/10/02 05:54:35;;;;;;;2.73;2.63;;;;;;;15.13;85.08;96202.50;4385880;32;20181;-62
2023/10/02 05:57:13;;;;;;;9.23;5.27;;;;;;;15.13;85.71;96197.16;4373626;32;20215;-63
2023/10/02 05:59:44;;;;;;;11.87;5.97;;;;;;;15.11;86.06;96199.34;4381671;32;20181;-62
2023/10/02 06:02:13;;;;;;;24.33;4.13;;;;;;;15.30;85.20;96201.88;4382651;32;20180;-62
2023/10/02 06:04:43;;;;;;;7.83;4.93;;;;;;;15.19;84.67;96205.03;4390457;32;20184;-63
2023/10/02 06:07:11;;;;;;;5.73;5.23;;;;;;;15.23;84.70;96201.47;4383038;32;20195;-62
2023/10/02 06:09:43;;;;;;;3.87;3.67;;;;;;;15.31;84.33;96210.69;4375686;32;20240;-63
2023/10/02 06:12:13;;;;;;;5.57;5.07;;;;;;;15.12;81.67;96208.94;4369203;32;20270;-63
2023/10/02 06:14:39;;;;;;;6.20;4.33;;;;;;;14.85;82.35;96208.97;4376561;32;20185;-63
2023/10/02 06:17:11;;;;;;;6.53;4.13;;;;;;;14.72;83.27;96207.09;4385864;32;20252;-63
2023/10/02 06:19:42;;;;;;;4.83;4.47;;;;;;;14.91;88.07;96209.66;4388936;32;20184;-62
2023/10/02 06:22:09;;;;;;;4.53;4.13;;;;;;;15.00;86.59;96208.62;4379632;32;20206;-63
2023/10/02 06:24:35;;;;;;;4.43;4.17;;;;;;;14.92;88.14;96220.06;4381187;32;20184;-62
2023/10/02 06:27:12;;;;;;;9.90;5.67;;;;;;;14.90;83.30;96213.41;4366100;32;20184;-61
2023/10/02 06:29:38;;;;;;;4.53;4.20;;;;;;;14.93;82.72;96218.97;4367157;32;20184;-63
2023/10/02 06:32:22;;;;;;;8.40;6.17;;;;;;;14.80;81.69;96225.09;4355887;32;20189;-63
2023/10/02 06:34:50;;;;;;;6.27;4.40;;;;;;;14.91;81.15;96226.47;4367264;32;20211;-63
2023/10/02 06:37:24;;;;;;;4.53;4.13;;;;;;;14.80;81.76;96230.44;4364039;32;20220;-64
2023/10/02 06:40:06;;;;;;;3.57;3.37;;;;;;;14.65;82.69;96230.72;4374926;32;20188;-63
2023/10/02 06:42:32;;;;;;;5.70;5.20;;;;;;;14.58;82.32;96233.78;4363161;32;20177;-64
2023/10/02 06:45:01;;;;;;;5.17;4.80;;;;;;;14.57;83.06;96232.19;4377696;32;20226;-63
2023/10/02 06:47:30;;;;;;;8.77;5.20;;;;;;;14.49;84.02;96229.44;4364121;32;20267;-64
2023/10/02 06:50:03;;;;;;;9.33;5.50;;;;;;;14.55;84.11;96231.69;4376137;32;20236;-63
2023/10/02 06:52:34;;;;;;;8.47;4.60;;;;;;;14.61;82.51;96230.53;4354861;32;20185;-64
2023/10/02 06:55:01;;;;;;;7.30;4.87;;;;;;;14.53;82.33;96230.44;4372267;32;20200;-64
2023/10/02 06:57:27;;;;;;;4.90;4.30;;;;;;;14.62;82.51;96231.31;4364390;32;20310;-64
2023/10/02 06:59:53;;;;;;;6.57;5.80;;;;;;;14.61;83.60;96230.53;4363747;32;20186;-63
2023/10/02 07:02:27;;;;;;;6.10;5.13;;;;;;;14.72;83.92;96231.13;4377239;32;20260;-63
2023/10/02 07:04:54;;;;;;;14.03;5.20;;;;;;;14.72;84.10;96231.13;4365161;32;20181;-63
2023/10/02 07:07:25;;;;;;;7.87;5.87;;;;;;;14.69;84.71;96231.72;4376061;32;20189;-64
2023/10/02 07:09:55;;;;;;;6.33;4.00;;;;;;;14.74;85.12;96239.66;4374207;32;20173;-63
2023/10/02 07:12:20;;;;;;;5.40;4.90;;;;;;;14.74;85.25;96231.62;4363518;32;20318;-64
2023/10/02 07:14:47;;;;;;;9.17;6.17;;;;;;;14.82;84.98;96238.16;4366035;32;20236;-64
2023/10/02 07:17:23;;;;;;;6.17;5.17;;;;;;;14.85;84.87;96238.34;4375766;32;20181;-63
2023/10/02 07:19:51;;;;;;;5.80;4.60;;;;;;;14.90;85.28;96240.94;4375865;32;20177;-64
2023/10/02 07:22:25;;;;;;;5.23;3.77;;;;;;;14.97;85.24;96241.31;4376593;32;20208;-63
2023/10/02 07:24:58;;;;;;;4.07;3.77;;;;;;;15.06;84.26;96239.53;4376407;32;20185;-64
2023/10/02 07:27:28;;;;;;;9.60;5.80;;;;;;;15.07;84.07;96241.09;4377193;32;20189;-60
2023/10/02 07:29:56;;;;;;;5.10;4.70;;;;;;;15.19;84.48;96237.91;4366301;32;20185;-61
2023/10/02 07:32:22;;;;;;;5.83;5.23;;;;;;;15.21;84.18;96246.44;4376330;32;20242;-62
2023/10/02 07:34:53;;;;;;;6.97;6.17;;;;;;;15.31;83.69;96248.91;4375994;32;20199;-62
2023/10/02 07:37:24;;;;;;;7.03;4.93;;;;;;;15.38;84.06;96246.59;4377338;32;20176;-62
2023/10/02 07:39:56;;;;;;;6.77;6.17;;;;;;;15.45;83.13;96240.84;4358822;32;20193;-62
2023/10/02 07:42:28;;;;;;;5.63;4.47;;;;;;;15.52;82.56;96243.09;4370813;32;20188;-62
2023/10/02 07:44:55;;;;;;;10.03;6.07;;;;;;;15.58;82.41;96240.06;4376624;32;20208;-62
2023/10/02 07:47:20;;;;;;;5.87;5.13;;;;;;;15.70;82.21;96242.97;4376125;32;20251;-62
2023/10/02 07:49:51;;;;;;;13.90;5.93;;;;;;;15.71;80.70;96247.25;4376593;32;20231;-62
2023/10/02 07:52:38;;;;;;;4.13;3.93;;;;;;;15.76;81.38;96241.78;4363108;32;20185;-62
2023/10/02 07:55:10;;;;;;;7.80;5.63;;;;;;;15.87;81.14;96246.88;4363854;32;20200;-62
2023/10/02 07:57:35;;;;;;;10.23;6.03;;;;;;;15.88;80.76;96240.44;4376731;32;20177;-62
2023/10/02 08:00:05;;;;;;;11.23;6.33;;;;;;;15.89;81.14;96240.12;4362554;32;20207;-62
2023/10/02 08:02:33;;;;;;;4.57;4.17;;;;;;;15.91;81.33;96237.94;4362307;32;20184;-62
2023/10/02 08:04:59;;;;;;;4.67;3.70;;;;;;;16.00;81.22;96243.37;4361443;32;20306;-62
2023/10/02 08:07:25;;;;;;;3.80;3.27;;;;;;;16.05;81.92;96233.31;4375820;32;20176;-62
2023/10/02 08:09:52;;;;;;;5.60;5.10;;;;;;;16.13;81.08;96240.59;4362927;32;20222;-62
2023/10/02 08:12:30;;;;;;;4.43;4.17;;;;;;;16.20;80.87;96236.72;4362459;32;20180;-62
2023/10/02 08:15:03;;;;;;;9.07;6.50;;;;;;;16.23;81.02;96236.88;4363075;32;20241;-62
2023/10/02 08:19:59;;;;;;;4.77;4.23;;;;;;;16.35;81.97;96230.97;4376334;32;20188;-62
2023/10/02 08:22:44;;;;;;;8.97;6.77;;;;;;;16.38;82.25;96241.06;4375237;32;20189;-62
2023/10/02 08:25:13;;;;;;;8.10;5.43;;;;;;;16.44;82.28;96237.94;4357686;32;20177;-62
2023/10/02 08:27:58;;;;;;;9.10;6.33;;;;;;;16.49;82.30;96243.16;4355637;32;20188;-62
2023/10/02 08:30:31;;;;;;;7.00;5.67;;;;;;;16.56;82.25;96245.41;4363375;32;20233;-63
2023/10/02 08:33:07;;;;;;;5.87;5.53;;;;;;;16.66;81.73;96244.37;4374621;32;20260;-63
2023/10/02 08:35:34;;;;;;;7.03;5.83;;;;;;;16.67;82.34;96238.69;4375975;32;20231;-63
2023/10/02 08:37:59;;;;;;;5.27;4.80;;;;;;;16.75;81.76;96240.62;4375834;32;20218;-62
2023/10/02 08:40:26;;;;;;;7.33;5.13;;;;;;;16.83;81.62;96244.47;4376176;32;20173;-62
2023/10/02 08:42:53;;;;;;;5.37;4.83;;;;;;;16.91;81.08;96243.69;4373207;32;20180;-62
2023/10/02 08:45:20;;;;;;;6.43;5.57;;;;;;;17.00;81.35;96241.03;4365786;32;20177;-63
2023/10/02 08:47:49;;;;;;;6.07;5.53;;;;;;;17.05;80.69;96244.34;4362052;32;20266;-62
2023/10/02 08:50:16;;;;;;;4.63;4.13;;;;;;;17.15;80.01;96243.28;4375878;32;20252;-62
2023/10/02 08:52:47;;;;;;;4.70;4.23;;;;;;;17.26;79.91;96235.72;4356362;32;20181;-63
2023/10/02 08:58:18;;;;;;;8.20;6.10;;;;;;;17.28;79.79;96241.56;4371213;32;20187;-62
2023/10/02 09:03:42;;;;;;;6.07;5.47;;;;;;;17.33;80.60;96239.53;4377705;32;20185;-63
2023/10/02 09:11:36;;;;;;;6.20;5.57;;;;;;;17.50;79.41;96238.75;4373275;32;20196;-62
2023/10/02 09:14:16;;;;;;;8.53;6.27;;;;;;;17.46;79.53;96233.22;4365560;32;20173;-62
2023/10/02 09:16:45;;;;;;;17.37;7.80;;;;;;;17.53;79.63;96236.22;4377453;32;20196;-62
2023/10/02 09:19:28;;;;;;;6.87;6.17;;;;;;;17.61;78.76;96220.47;4376822;32;20176;-62
2023/10/02 09:22:16;;;;;;;6.43;5.83;;;;;;;17.67;78.61;96228.06;4357892;32;20177;-63
2023/10/02 09:24:41;;;;;;;8.30;6.17;;;;;;;17.76;79.14;96215.44;4372318;32;20208;-62
2023/10/02 09:27:23;;;;;;;6.50;5.27;;;;;;;17.82;78.11;96221.44;4375594;32;20184;-63
2023/10/02 09:30:21;;;;;;;14.07;6.33;;;;;;;17.83;79.06;96220.34;4362729;32;20216;-63
2023/10/02 09:32:53;;;;;;;4.67;4.17;;;;;;;17.80;78.94;96216.38;4376811;32;20232;-62
2023/10/02 09:35:29;;;;;;;12.63;6.17;;;;;;;17.87;78.73;96218.59;4378831;32;20172;-63
2023/10/02 09:38:03;;;;;;;5.47;5.07;;;;;;;17.91;78.24;96208.00;4378673;32;20185;-63
2023/10/02 09:43:33;;;;;;;9.73;6.97;;;;;;;17.97;77.65;96212.87;4351045;32;20172;-63
2023/10/02 09:46:00;;;;;;;14.17;6.73;;;;;;;18.04;77.19;96212.41;4364590;32;20185;-62
2023/10/02 09:48:47;;;;;;;7.50;5.50;;;;;;;18.08;77.66;96213.34;4378681;32;20191;-62
2023/10/02 09:51:30;;;;;;;7.63;4.60;;;;;;;18.16;77.64;96207.16;4354022;32;20260;-63
2023/10/02 09:54:21;;;;;;;4.93;4.50;;;;;;;18.20;77.04;96202.72;4370037;32;20287;-63
2023/10/02 09:57:04;;;;;;;5.47;4.97;;;;;;;18.40;75.72;96206.63;4364108;32;20259;-62
2023/10/02 09:59:47;;;;;;;5.53;5.13;;;;;;;18.45;74.82;96204.56;4378997;32;20181;-62
2023/10/02 10:05:02;;;;;;;5.80;5.30;;;;;;;18.51;74.52;96197.09;4359606;32;20300;-62
2023/10/02 10:07:46;;;;;;;6.50;5.10;;;;;;;18.52;75.19;96195.97;4362811;32;20177;-62
2023/10/02 10:10:27;;;;;;;11.20;5.30;;;;;;;18.59;75.02;96198.19;4361642;32;20189;-61
2023/10/02 10:12:55;;;;;;;3.97;3.67;;;;;;;18.61;74.35;96190.63;4361460;32;20180;-62
2023/10/02 10:15:31;;;;;;;10.03;6.13;;;;;;;18.68;73.75;96198.97;4348727;32;20205;-62
2023/10/02 10:17:58;;;;;;;9.47;6.80;;;;;;;18.69;73.81;96195.19;4363320;32;20268;-62
2023/10/02 10:20:26;;;;;;;7.00;4.93;;;;;;;18.68;74.45;96196.28;4361791;32;20189;-62
2023/10/02 10:22:56;;;;;;;9.33;6.63;;;;;;;18.65;74.84;96189.66;4363138;32;20176;-62
2023/10/02 10:27:54;;;;;;;8.90;7.77;;;;;;;18.70;75.86;96189.47;4363108;32;20211;-62
2023/10/02 10:30:24;;;;;;;5.97;5.47;;;;;;;18.74;75.84;96192.28;4361440;32;20239;-62
2023/10/02 10:35:41;;;;;;;12.87;6.70;;;;;;;18.89;75.72;96183.69;4353128;32;20260;-62
2023/10/02 10:38:39;;;;;;;6.83;5.93;;;;;;;18.91;75.42;96186.06;4362334;32;20196;-62
2023/10/02 10:41:26;;;;;;;11.97;7.07;;;;;;;19.03;74.18;96180.75;4361044;32;20173;-62
2023/10/02 10:46:27;;;;;;;10.47;5.37;;;;;;;19.15;74.02;96184.31;4322339;32;20190;-62
2023/10/02 10:49:16;;;;;;;10.57;5.20;;;;;;;19.15;73.06;96187.00;4325448;32;20224;-63
2023/10/02 10:51:42;;;;;;;5.67;5.17;;;;;;;19.20;72.96;96176.03;4330912;32;20181;-62
2023/10/02 10:54:18;;;;;;;5.30;4.80;;;;;;;19.19;73.39;96169.09;4322582;32;20212;-62
2023/10/02 10:57:18;;;;;;;6.80;6.20;;;;;;;19.27;73.95;96174.75;4357848;32;20176;-62
2023/10/02 10:59:46;;;;;;;7.67;3.93;;;;;;;19.26;74.22;96173.97;4340557;32;20185;-62
2023/10/02 11:02:19;;;;;;;7.83;5.47;;;;;;;19.28;74.32;96173.63;4335335;32;20219;-62
2023/10/02 11:04:54;;;;;;;7.70;4.87;;;;;;;19.38;73.83;96165.16;4367023;32;20190;-62
2023/10/02 11:07:27;;;;;;;9.67;7.23;;;;;;;19.50;73.54;96151.81;4358581;32;20205;-62
2023/10/02 11:10:20;;;;;;;4.50;4.20;;;;;;;19.60;72.83;96156.78;4346521;32;20188;-62
2023/10/02 11:12:58;;;;;;;13.30;7.13;;;;;;;19.67;72.30;96148.97;4368544;32;20256;-62
2023/10/02 11:18:23;;;;;;;7.00;6.40;;;;;;;20.02;71.45;96145.91;4362243;32;20196;-62
2023/10/02 11:20:57;;;;;;;12.27;5.80;;;;;;;20.11;70.86;96146.63;4329550;32;20207;-62
2023/10/02 11:23:48;;;;;;;4.63;4.33;;;;;;;20.15;70.46;96142.94;4336676;32;20176;-62
2023/10/02 11:26:21;;;;;;;10.20;6.77;;;;;;;20.12;70.00;96134.72;4342259;32;20218;-61
2023/10/02 11:28:51;;;;;;;9.43;6.13;;;;;;;20.15;69.72;96134.06;4346718;32;20197;-62
2023/10/02 11:31:45;;;;;;;7.13;5.27;;;;;;;20.37;68.73;96130.94;4347982;32;20185;-61
2023/10/02 11:34:12;;;;;;;7.87;6.33;;;;;;;20.30;69.01;96132.62;4334586;32;20189;-62
2023/10/02 11:36:46;;;;;;;16.07;5.87;;;;;;;20.15;70.00;96123.28;4370457;32;20189;-62
2023/10/02 11:39:27;;;;;;;6.20;5.37;;;;;;;20.22;69.63;96118.09;4330691;32;20184;-62
2023/10/02 11:41:55;;;;;;;6.93;4.83;;;;;;;20.36;68.38;96121.28;4366141;32;20242;-62
2023/10/02 11:44:21;;;;;;;5.17;4.70;;;;;;;20.44;67.75;96122.31;4331949;32;20184;-62
2023/10/02 11:46:48;;;;;;;11.43;6.80;;;;;;;20.50;66.97;96121.75;4355179;32;20228;-62
2023/10/02 11:49:14;;;;;;;5.73;5.20;;;;;;;20.62;66.28;96115.56;4368004;32;20194;-61
2023/10/02 11:51:42;;;;;;;5.70;5.20;;;;;;;20.54;66.56;96105.72;4354383;32;20186;-62
2023/10/02 11:54:11;;;;;;;9.30;6.77;;;;;;;20.50;67.48;96108.28;4368906;32;20219;-61
2023/10/02 11:56:39;;;;;;;5.83;5.33;;;;;;;20.41;67.51;96104.91;4361642;32;20192;-61
2023/10/02 11:59:07;;;;;;;10.03;6.53;;;;;;;20.45;66.48;96100.41;4362244;32;20203;-61
2023/10/02 12:01:35;;;;;;;6.97;6.37;;;;;;;20.56;65.09;96101.56;4363013;32;20232;-62
2023/10/02 12:04:04;;;;;;;5.03;4.57;;;;;;;20.75;64.32;96094.78;4351850;32;20185;-62
2023/10/02 12:06:31;;;;;;;16.90;5.43;;;;;;;20.63;65.87;96100.97;4339115;32;20212;-61
2023/10/02 12:08:58;;;;;;;5.97;5.40;;;;;;;20.54;66.17;96087.62;4353408;32;20290;-62
2023/10/02 12:11:31;;;;;;;7.33;5.50;;;;;;;20.48;nan;96078.19;4371925;32;20193;-62
2023/10/02 12:13:59;;;;;;;9.27;5.57;;;;;;;20.41;66.37;96074.47;4363679;32;20298;-62
2023/10/02 12:16:24;;;;;;;6.30;5.57;;;;;;;20.44;65.92;96079.19;4358777;32;20200;-62
2023/10/02 12:18:52;;;;;;;7.13;5.03;;;;;;;20.36;66.55;96075.47;4341494;32;20185;-62
2023/10/02 12:21:21;;;;;;;7.27;6.47;;;;;;;20.36;66.38;96064.69;4328408;32;20185;-62
2023/10/02 12:23:49;;;;;;;4.67;4.37;;;;;;;20.40;66.54;96075.59;4354804;32;20240;-62
2023/10/02 12:26:17;;;;;;;8.33;6.93;;;;;;;20.37;66.04;96066.25;4358635;32;20215;-61
2023/10/02 12:28:44;;;;;;;5.73;5.23;;;;;;;20.39;64.96;96064.03;4374271;32;20172;-62
2023/10/02 12:31:15;;;;;;;5.07;4.53;;;;;;;20.43;64.80;96066.81;4347024;32;20257;-62
2023/10/02 12:33:43;;;;;;;7.97;5.97;;;;;;;20.47;65.12;96065.03;4350303;32;20173;-61
2023/10/02 12:36:15;;;;;;;7.53;6.77;;;;;;;20.49;65.71;96068.97;4345881;32;20165;-61
2023/10/02 12:38:42;;;;;;;11.90;5.90;;;;;;;20.53;66.07;96058.31;4358241;32;20176;-62
2023/10/02 12:41:30;;;;;;;5.93;5.33;;;;;;;20.66;64.25;96059.06;4373220;32;20236;-62
2023/10/02 12:44:02;;;;;;;6.97;5.23;;;;;;;20.67;64.17;96049.84;4361119;32;20276;-62
2023/10/02 12:46:32;;;;;;;6.13;5.53;;;;;;;20.75;63.43;96054.34;4344020;32;20207;-61
2023/10/02 12:49:00;;;;;;;7.27;5.97;;;;;;;20.87;62.79;96051.59;4365077;32;20268;-61
2023/10/02 12:51:31;;;;;;;4.83;4.43;;;;;;;21.09;61.28;96051.09;4373639;32;20259;-62